Flight Track Log - Related Links

Times and Time Zones

All times are in EDT time to prevent confusion due to time zone crossing. See the N3745Q flight status page for this flight to view local times or setup timezone preferences in your user account.

Time Position Orientation Groundspeed Altitude Reporting Facility
EDT Latitude Longitude Course Direction KTS MPH feet Rate Location/Type
Sat 04:45:55 PM 32.2944 -90.9339 59° Northeast 100 115 1,900  Level Memphis Center
Sat 04:46:56 PM 32.2878 -90.9017 104° East 102 117 2,200 341 Climbing Memphis Center
Sat 04:47:58 PM 32.2833 -90.8694 99° East 102 117 2,600 339 Climbing Memphis Center
Sat 04:49:00 PM 32.2783 -90.8369 100° East 102 117 2,900 339 Climbing Memphis Center
Sat 04:50:00 PM 32.2234 -90.7992 105° East  Level Estimated
Sat 04:50:02 PM 32.2731 -90.8033 101° East 102 117 3,300  Level Memphis Center
Sat 04:51:00 PM 32.2436 -90.7603 59° Northeast  Level FlightAware Approximate
Sat 04:51:03 PM 32.2661 -90.7628 101° East 102 117 3,700  Level Memphis Center
Sat 04:52:04 PM 32.2594 -90.7258 102° East 109 125 4,100 339 Climbing Memphis Center
Sat 04:53:07 PM 32.2531 -90.6908 102° East 108 124 4,400 339 Climbing Memphis Center
Sat 04:54:08 PM 32.2481 -90.6553 99° East 108 124 4,800 341 Climbing Memphis Center
Sat 04:55:10 PM 32.2414 -90.6178 102° East 111 128 5,100 387 Climbing Memphis Center
Sat 04:56:12 PM 32.2336 -90.5728 102° East 113 130 5,600 456 Climbing Memphis Center
Sat 04:56:29 PM 32.2319 -90.5600 99° East 119 137 5,700 290 Climbing Memphis Center
Sat 04:57:14 PM 32.2275 -90.5353 102° East 113 130 5,900 340 Climbing Memphis Center
Sat 04:58:15 PM 32.2214 -90.4967 101° East 115 132 6,300 341 Climbing Memphis Center
Sat 04:59:17 PM 32.2147 -90.4589 102° East 115 132 6,600 290 Climbing Memphis Center
Sat 05:00:19 PM 32.2083 -90.4206 101° East 116 133 6,900 247 Climbing Memphis Center
Sat 05:00:30 PM 32.2047 -90.4092 111° Southeast 119 137 6,900 197 Level Memphis Center
Sat 05:01:20 PM 32.2014 -90.3833 99° East 116 133 7,100 321 Climbing Memphis Center
Sat 05:02:22 PM 32.1950 -90.3364 99° East 116 133 7,500 290 Climbing Memphis Center
Sat 05:03:24 PM 32.1872 -90.2992 104° East 116 133 7,700 242 Climbing Memphis Center
Sat 05:04:26 PM 32.1814 -90.2617 100° East 116 133 8,000 293 Climbing Memphis Center
Sat 05:05:27 PM 32.1747 -90.2250 102° East 116 133 8,300 244 Climbing Memphis Center
Sat 05:06:29 PM 32.1689 -90.1883 101° East 116 133 8,500 242 Climbing Memphis Center
Sat 05:07:31 PM 32.1608 -90.1442 102° East 116 133 8,800 306 Climbing Memphis Center
Sat 05:08:07 PM 32.1569 -90.1269 105° East 111 128 9,000 290 Climbing Memphis Center
Sat 05:08:33 PM 32.1553 -90.1083 96° East 115 132 9,100 68 Climbing Memphis Center
Sat 05:09:35 PM 32.1483 -90.0686 102° East 117 135 9,100  Level Memphis Center
Sat 05:10:37 PM 32.1411 -90.0236 101° East 134 154 9,100  Level Memphis Center
Sat 05:11:38 PM 32.1325 -89.9808 103° East 134 154 9,100  Level Memphis Center
Sat 05:12:40 PM 32.1250 -89.9378 102° East 134 154 9,100  Level Memphis Center
Sat 05:13:42 PM 32.1167 -89.8850 101° East 135 155 9,100  Level Memphis Center
Sat 05:14:44 PM 32.1086 -89.8425 103° East 135 155 9,100  Level Memphis Center
Sat 05:15:46 PM 32.1011 -89.7983 101° East 135 155 9,100  Level Memphis Center
Sat 05:16:48 PM 32.0947 -89.7547 100° East 135 155 9,100  Level Memphis Center
Sat 05:17:50 PM 32.0858 -89.7131 104° East 135 155 9,100  Level Memphis Center
Sat 05:18:51 PM 32.0772 -89.6631 101° East 135 155 9,100  Level Memphis Center
Sat 05:19:53 PM 32.0700 -89.6214 102° East 134 154 9,100  Level Memphis Center
Sat 05:20:55 PM 32.0622 -89.5786 102° East 134 154 9,100  Level Memphis Center
Sat 05:21:57 PM 32.0547 -89.5342 101° East 134 154 9,100  Level Memphis Center
Sat 05:22:59 PM 32.0475 -89.4903 101° East 135 155 9,100  Level Memphis Center
Sat 05:24:01 PM 32.0372 -89.4400 104° East 135 155 9,100  Level Memphis Center
Sat 05:25:03 PM 32.0311 -89.3978 100° East 135 155 9,100  Level Memphis Center
Sat 05:26:05 PM 32.0236 -89.3550 102° East 134 154 9,100  Level Memphis Center
Sat 05:27:07 PM 32.0139 -89.3128 105° East 134 154 9,100  Level Memphis Center
Sat 05:28:08 PM 31.9844 -89.2864 143° Southeast 132 152 9,100  Level Memphis Center
Sat 05:29:10 PM 31.9622 -89.2558 131° Southeast 129 148 9,100  Level Memphis Center
Sat 05:30:12 PM 31.9444 -89.2103 115° Southeast 128 147 9,100  Level Memphis Center
Sat 05:31:14 PM 31.9308 -89.1769 116° Southeast 128 147 9,100  Level Memphis Center
Sat 05:32:16 PM 31.9114 -89.1311 117° Southeast 129 148 9,100  Level Memphis Center
Sat 05:33:17 PM 31.8956 -89.0919 115° Southeast 129 148 9,100  Level Memphis Center
Sat 05:34:19 PM 31.8789 -89.0539 117° Southeast 130 150 9,100  Level Memphis Center
Sat 05:35:21 PM 31.8625 -89.0150 116° Southeast 130 150 9,100  Level Memphis Center
Sat 05:36:23 PM 31.8461 -88.9756 116° Southeast 131 151 9,100  Level Memphis Center
Sat 05:37:25 PM 31.8306 -88.9350 114° Southeast 132 152 9,100  Level Memphis Center
Sat 05:38:27 PM 31.8111 -88.8864 115° Southeast 134 154 9,100  Level Memphis Center
Sat 05:39:29 PM 31.7939 -88.8472 117° Southeast 135 155 9,100  Level Memphis Center
Sat 05:40:30 PM 31.7797 -88.8075 113° Southeast 134 154 9,100  Level Memphis Center
Sat 05:41:32 PM 31.7628 -88.7664 116° Southeast 135 155 9,100  Level Memphis Center
Sat 05:42:34 PM 31.7525 -88.7228 105° East 136 157 9,100  Level Memphis Center
Sat 05:43:36 PM 31.7436 -88.6789 103° East 136 157 9,100  Level Memphis Center
Sat 05:44:38 PM 31.7297 -88.6353 111° Southeast 138 159 9,100  Level Memphis Center
Sat 05:45:39 PM 31.7144 -88.5850 110° East 138 159 9,100  Level Memphis Center
Sat 05:46:41 PM 31.7025 -88.5414 108° East 138 159 9,100  Level Memphis Center
Sat 05:47:43 PM 31.6881 -88.4992 112° Southeast 139 160 9,100  Level Memphis Center
Sat 05:48:45 PM 31.6678 -88.4622 123° Southeast 139 160 9,100  Level Memphis Center
Sat 05:49:47 PM 31.6481 -88.4233 121° Southeast 139 160 9,100  Level Memphis Center
Sat 05:50:48 PM 31.6269 -88.3847 123° Southeast 139 160 9,100  Level Memphis Center
Sat 05:51:50 PM 31.6069 -88.3475 122° Southeast 139 160 9,100  Level Memphis Center
Sat 05:52:28 PM 31.5925 -88.3169 119° Southeast 138 159 9,100  Level Atlanta Center
Sat 05:53:31 PM 31.5725 -88.2772 121° Southeast 138 159 9,100  Level Atlanta Center
Sat 05:54:33 PM 31.5531 -88.2383 120° Southeast 138 159 9,100  Level Atlanta Center
Sat 05:55:35 PM 31.5344 -88.1997 119° Southeast 138 159 9,100  Level Atlanta Center
Sat 05:56:37 PM 31.5333 -88.1533 92° East 139 160 9,100  Level Atlanta Center
Sat 05:57:39 PM 31.5269 -88.1069 99° East 142 163 9,100  Level Atlanta Center
Sat 05:58:41 PM 31.5197 -88.0497 98° East 144 166 9,100  Level Atlanta Center
Sat 05:59:44 PM 31.5136 -88.0025 99° East 144 166 9,100  Level Atlanta Center
Sat 06:00:46 PM 31.5064 -87.9550 100° East 145 167 9,100  Level Atlanta Center
Sat 06:01:48 PM 31.5011 -87.9061 97° East 147 169 9,100  Level Atlanta Center
Sat 06:02:50 PM 31.4931 -87.8569 101° East 149 171 9,100  Level Atlanta Center
Sat 06:03:52 PM 31.4867 -87.8094 99° East 149 171 9,100  Level Atlanta Center
Sat 06:04:54 PM 31.4800 -87.7547 98° East 148 170 9,100  Level Atlanta Center
Sat 06:05:57 PM 31.4733 -87.7075 99° East 147 169 9,100  Level Atlanta Center
Sat 06:06:59 PM 31.4672 -87.6600 99° East 147 169 9,100 -48 Level Atlanta Center
Sat 06:08:01 PM 31.4603 -87.6142 100° East 147 169 9,000 -48 Descending Atlanta Center
Sat 06:09:03 PM 31.4539 -87.5667 99° East 147 169 9,000  Level Atlanta Center
Sat 06:10:05 PM 31.4481 -87.5194 98° East 147 169 9,000  Level Atlanta Center
Sat 06:11:07 PM 31.4400 -87.4644 100° East 146 168 9,000  Level Atlanta Center
Sat 06:12:10 PM 31.4328 -87.4169 100° East 146 168 9,000  Level Atlanta Center
Sat 06:13:12 PM 31.4275 -87.3725 98° East 144 166 9,000  Level Atlanta Center
Sat 06:14:14 PM 31.4206 -87.3250 100° East 144 166 9,000  Level Atlanta Center
Sat 06:15:16 PM 31.4142 -87.2781 99° East 144 166 9,000 48 Level Atlanta Center
Sat 06:16:18 PM 31.4056 -87.2208 100° East 146 168 9,100 48 Climbing Atlanta Center
Sat 06:17:20 PM 31.3983 -87.1736 100° East 146 168 9,100  Level Atlanta Center
Sat 06:18:23 PM 31.3919 -87.1244 99° East 147 169 9,100  Level Atlanta Center
Sat 06:19:25 PM 31.3842 -87.0758 101° East 150 173 9,100  Level Atlanta Center
Sat 06:20:27 PM 31.3767 -87.0258 100° East 151 174 9,100 -48 Level Atlanta Center
Sat 06:21:29 PM 31.3714 -86.9775 97° East 152 175 9,000  Descending Atlanta Center
Sat 06:22:44 PM 31.3594 -86.9139 102° East 144 166 9,100 44 Climbing Jacksonville Center
Sat 06:23:44 PM 31.3528 -86.8650 99° East 144 166 9,100  Level Jacksonville Center
Sat 06:24:45 PM 31.3458 -86.8186 100° East 144 166 9,100  Level Jacksonville Center
Sat 06:25:44 PM 31.3389 -86.7719 100° East 144 166 9,100  Level Jacksonville Center
Sat 06:26:44 PM 31.3319 -86.7231 99° East 144 166 9,100  Level Jacksonville Center
Sat 06:27:44 PM 31.3231 -86.6742 102° East 144 166 9,100  Level Jacksonville Center
Sat 06:28:45 PM 31.3161 -86.6253 99° East 144 166 9,100  Level Jacksonville Center
Sat 06:29:47 PM 31.3094 -86.5667 98° East 152 175 9,100  Level Jacksonville Center
Sat 06:30:44 PM 31.3022 -86.5275 102° East 144 166 9,100  Level Jacksonville Center
Sat 06:31:45 PM 31.2953 -86.4808 100° East 144 166 9,100  Level Jacksonville Center
Sat 06:32:45 PM 31.2883 -86.4319 99° East 144 166 9,100  Level Jacksonville Center
Sat 06:33:44 PM 31.2811 -86.3856 100° East 144 166 9,100  Level Jacksonville Center
Sat 06:34:50 PM 31.2725 -86.3269 100° East 151 174 9,100  Level Jacksonville Center
Sat 06:35:45 PM 31.2672 -86.2856 98° East 149 171 9,100  Level Jacksonville Center
Sat 06:36:44 PM 31.2581 -86.2439 104° East 144 166 9,100  Level Jacksonville Center
Sat 06:37:45 PM 31.2528 -86.2000 98° East 144 166 9,100  Level Jacksonville Center
Sat 06:38:45 PM 31.2456 -86.1558 101° East 144 166 9,100  Level Jacksonville Center
Sat 06:39:53 PM 31.2347 -86.0922 101° East 148 170 9,100  Level Jacksonville Center
Sat 06:40:59 PM 31.2278 -86.0386 99° East 156 180 9,100  Level Jacksonville Center
Sat 06:42:00 PM 31.2206 -85.9875 99° East 156 180 9,100  Level Jacksonville Center
Sat 06:43:00 PM 31.2133 -85.9386 100° East 156 180 9,100  Level Jacksonville Center
Sat 06:44:01 PM 31.2042 -85.8850 101° East 154 177 9,100  Level Jacksonville Center
Sat 06:45:02 PM 31.1992 -85.8386 97° East 154 177 9,100  Level Jacksonville Center
Sat 06:46:02 PM 31.1897 -85.7897 103° East 157 181 9,100  Level Jacksonville Center
Sat 06:47:03 PM 31.1847 -85.7386 97° East 155 178 9,100  Level Jacksonville Center
Sat 06:48:03 PM 31.1753 -85.6897 103° East 148 170 9,100  Level Jacksonville Center
Sat 06:49:04 PM 31.1700 -85.6433 98° East 143 165 9,100  Level Jacksonville Center
Sat 06:50:05 PM 31.1606 -85.5947 103° East 145 167 9,100  Level Jacksonville Center
Sat 06:51:05 PM 31.1553 -85.5483 98° East 151 174 9,100  Level Jacksonville Center
Sat 06:52:06 PM 31.1458 -85.4994 103° East 151 174 9,100  Level Jacksonville Center
Sat 06:53:06 PM 31.1406 -85.4533 98° East 149 171 9,100  Level Jacksonville Center
Sat 06:54:07 PM 31.1311 -85.4019 102° East 152 175 9,100  Level Jacksonville Center
Sat 06:55:14 PM 31.1239 -85.3461 99° East 156 180 9,100  Level Jacksonville Center
Sat 06:56:14 PM 31.1164 -85.2997 101° East 150 173 9,100  Level Jacksonville Center
Sat 06:57:15 PM 31.1069 -85.2533 103° East 147 169 9,100  Level Jacksonville Center
Sat 06:58:16 PM 31.1017 -85.2047 97° East 145 167 9,100  Level Jacksonville Center
Sat 06:59:16 PM 31.0939 -85.1608 102° East 145 167 9,100  Level Jacksonville Center
Sat 07:00:17 PM 31.0867 -85.1097 99° East 150 173 9,100  Level Jacksonville Center
Sat 07:01:17 PM 31.0769 -85.0636 104° East 154 177 9,100  Level Jacksonville Center
Sat 07:02:18 PM 31.0714 -85.0125 97° East 151 174 9,100  Level Jacksonville Center
Sat 07:36:56 PM 30.3047 -83.8478 135° Southeast 147 169 9,100  Level Jacksonville Center
Sat 07:37:00 PM 30.2853 -83.8393 135° Southeast  Level FlightAware Approximate
Sat 07:37:56 PM 30.2758 -83.8139 135° Southeast 145 167 9,100  Level Jacksonville Center
Sat 07:38:00 PM 30.2582 -83.8075 135° Southeast  Level FlightAware Approximate
Sat 07:38:56 PM 30.2508 -83.7822 132° Southeast 141 162 9,100  Level Jacksonville Center
Sat 07:39:00 PM 30.2311 -83.7758 135° Southeast  Level FlightAware Approximate
Sat 07:39:56 PM 30.2239 -83.7556 139° Southeast 167 192 9,100  Level Jacksonville Center
Sat 07:40:00 PM 30.2041 -83.7440 135° Southeast  Level FlightAware Approximate
Sat 07:40:56 PM 30.1992 -83.7242 132° Southeast 159 183 9,100  Level Jacksonville Center
Sat 07:41:00 PM 30.1770 -83.7123 135° Southeast  Level FlightAware Approximate
Sat 07:41:56 PM 30.1722 -83.6950 137° Southeast 148 170 9,100  Level Jacksonville Center
Sat 07:42:56 PM 30.1472 -83.6661 135° Southeast 138 159 9,100  Level Jacksonville Center
Sat 07:43:56 PM 30.1203 -83.6347 135° Southeast 133 153 9,100  Level Jacksonville Center
Sat 07:44:56 PM 30.0933 -83.6081 139° Southeast 133 153 9,100  Level Jacksonville Center
Sat 07:45:56 PM 30.0683 -83.5767 133° Southeast 133 153 9,100  Level Jacksonville Center
Sat 07:46:56 PM 30.0414 -83.5478 137° Southeast 133 153 9,100  Level Jacksonville Center
Sat 07:47:56 PM 30.0144 -83.5164 135° Southeast 133 153 9,100  Level Jacksonville Center
Sat 07:48:56 PM 29.9875 -83.4872 137° Southeast 133 153 9,100  Level Jacksonville Center
Sat 07:49:56 PM 29.9625 -83.4583 135° Southeast 133 153 9,100  Level Jacksonville Center
Sat 07:50:56 PM 29.9333 -83.4269 137° Southeast 133 153 9,100  Level Jacksonville Center
Sat 07:51:56 PM 29.9086 -83.3981 135° Southeast 133 153 9,100  Level Jacksonville Center
Sat 07:52:56 PM 29.8836 -83.3692 135° Southeast 133 153 9,100  Level Jacksonville Center
Sat 07:53:56 PM 29.8567 -83.3381 135° Southeast 133 153 9,100  Level Jacksonville Center
Sat 07:54:56 PM 29.8294 -83.3092 137° Southeast 133 153 9,100  Level Jacksonville Center
Sat 07:55:56 PM 29.8025 -83.2756 133° Southeast 138 159 9,100  Level Jacksonville Center
Sat 07:56:13 PM 29.7858 -83.2658 153° Southeast 154 177 9,100  Level Jacksonville Center
Sat 07:56:32 PM 29.7753 -83.2586 149° Southeast 146 168 9,100  Level Jacksonville Center
Sat 07:56:56 PM 29.7775 -83.2467 78° East 138 159 9,100  Level Jacksonville Center
Sat 07:57:32 PM 29.7503 -83.2275 149° Southeast 138 159 9,100  Level Jacksonville Center
Sat 07:57:56 PM 29.7483 -83.2156 101° East 138 159 9,100  Level Jacksonville Center
Sat 07:58:33 PM 29.7233 -83.1964 146° Southeast 141 162 9,100  Level Jacksonville Center
Sat 07:58:56 PM 29.7214 -83.1867 103° East 138 159 9,100  Level Jacksonville Center
Sat 07:59:34 PM 29.6942 -83.1628 143° Southeast 141 162 9,100  Level Jacksonville Center
Sat 07:59:56 PM 29.6900 -83.1508 112° Southeast 138 159 9,100  Level Jacksonville Center
Sat 08:00:41 PM 29.6631 -83.1267 142° Southeast 142 163 9,100  Level Jacksonville Center
Sat 08:00:56 PM 29.6650 -83.1219 65° Northeast 138 159 9,100  Level Jacksonville Center
Sat 08:01:35 PM 29.6381 -83.0958 140° Southeast 141 162 9,100  Level Jacksonville Center
Sat 08:01:56 PM 29.6339 -83.0886 124° Southeast 138 159 9,100  Level Jacksonville Center
Sat 08:02:42 PM 29.6067 -83.0644 142° Southeast 138 159 9,100  Level Jacksonville Center
Sat 08:02:56 PM 29.6047 -83.0597 115° Southeast 138 159 9,100  Level Jacksonville Center
Sat 08:03:43 PM 29.5753 -83.0383 148° Southeast 135 155 9,100  Level Jacksonville Center
Sat 08:03:56 PM 29.5775 -83.0358 44° Northeast 132 152 9,100  Level Jacksonville Center
Sat 08:04:56 PM 29.5461 -83.0144 149° Southeast 126 145 9,100  Level Jacksonville Center
Sat 08:05:32 PM 29.5192 -83.0000 155° Southeast 139 160 9,100  Level Jacksonville Center
Sat 08:05:56 PM 29.5108 -82.9928 143° Southeast 131 151 9,100  Level Jacksonville Center
Sat 08:06:33 PM 29.4856 -82.9783 154° Southeast 136 157 9,100  Level Jacksonville Center
Sat 08:06:56 PM 29.4753 -82.9714 150° Southeast 138 159 9,100  Level Jacksonville Center
Sat 08:07:34 PM 29.4522 -82.9569 151° Southeast 133 153 9,100  Level Jacksonville Center
Sat 08:07:56 PM 29.4439 -82.9497 143° Southeast 138 159 9,100  Level Jacksonville Center
Sat 08:08:34 PM 29.4189 -82.9356 154° Southeast 134 154 9,100  Level Jacksonville Center
Sat 08:08:56 PM 29.4106 -82.9283 143° Southeast 138 159 9,100  Level Jacksonville Center
Sat 08:09:35 PM 29.3856 -82.9117 150° Southeast 134 154 9,100  Level Jacksonville Center
Sat 08:09:56 PM 29.3792 -82.9069 147° Southeast 138 159 9,100  Level Jacksonville Center
Sat 08:10:29 PM 29.3583 -82.8950 153° Southeast 134 154 9,100  Level Jacksonville Center
Sat 08:10:56 PM 29.3458 -82.8856 147° Southeast 138 159 9,100  Level Jacksonville Center
Sat 08:11:36 PM 29.3208 -82.8711 153° Southeast 134 154 9,100  Level Jacksonville Center
Sat 08:12:37 PM 29.2875 -82.8497 151° Southeast 135 155 9,100  Level Jacksonville Center
Sat 08:13:38 PM 29.2561 -82.8258 146° Southeast 132 152 9,100  Level Jacksonville Center
Sat 08:14:32 PM 29.2247 -82.8069 152° Southeast 133 153 9,100  Level Jacksonville Center
Sat 08:15:33 PM 29.1933 -82.7878 152° Southeast 133 153 9,100  Level Jacksonville Center
Sat 08:16:34 PM 29.1600 -82.7689 154° Southeast 134 154 9,100  Level Jacksonville Center
Sat 08:17:34 PM 29.1286 -82.7453 147° Southeast 132 152 9,100  Level Jacksonville Center
Sat 08:18:41 PM 29.0931 -82.7239 152° Southeast 133 153 9,100  Level Jacksonville Center
Sat 08:19:42 PM 29.0597 -82.7003 148° Southeast 135 155 9,100  Level Jacksonville Center
Sat 08:20:43 PM 29.0283 -82.6811 152° Southeast 133 153 9,100  Level Jacksonville Center
Sat 08:21:43 PM 28.9950 -82.6600 151° Southeast 133 153 9,100  Level Jacksonville Center
Sat 08:22:50 PM 28.9572 -82.6364 151° Southeast 134 154 9,100  Level Jacksonville Center
Sat 08:23:51 PM 28.9258 -82.6150 149° Southeast 136 157 9,100  Level Jacksonville Center
Sat 08:24:51 PM 28.8925 -82.5939 151° Southeast 137 158 9,100  Level Jacksonville Center
Sat 08:25:52 PM 28.8592 -82.5703 148° Southeast 137 158 9,100  Level Jacksonville Center
Sat 08:26:53 PM 28.8214 -82.5489 154° Southeast 136 157 9,100  Level Jacksonville Center
Sat 08:28:29 PM 28.7750 -82.5150 147° Southeast 140 161 9,100  Level Miami Center
Sat 08:29:14 PM 28.7500 -82.5000 152° Southeast 140 161 9,100  Level Tampa TRACON
Sat 08:30:14 PM 28.7167 -82.4833 156° South 140 161 9,100  Level Tampa TRACON
Sat 08:31:14 PM 28.6833 -82.4500 139° Southeast 138 159 9,100  Level Tampa TRACON
Sat 08:32:14 PM 28.6500 -82.4333 156° South 137 158 9,100  Level Tampa TRACON
Sat 08:33:09 PM 28.6167 -82.4167 156° South 137 158 9,100  Level Tampa TRACON
Sat 08:34:09 PM 28.5833 -82.4000 156° South 138 159 9,100  Level Tampa TRACON
Sat 08:35:09 PM 28.5500 -82.3667 139° Southeast 139 160 9,100  Level Tampa TRACON
Sat 08:36:09 PM 28.5167 -82.3500 156° South 137 158 9,100  Level Tampa TRACON
Sat 08:37:09 PM 28.4833 -82.3333 156° South 136 157 9,100  Level Tampa TRACON
Sat 08:38:27 PM 28.4333 -82.3000 150° Southeast 133 153 9,100  Level Tampa TRACON
Sat 08:39:27 PM 28.4000 -82.2833 156° South 133 153 9,100  Level Tampa TRACON
Sat 08:40:15 PM 28.3833 -82.2667 139° Southeast 133 153 9,100  Level Tampa TRACON
Sat 08:41:15 PM 28.3500 -82.2500 156° South 135 155 9,100  Level Tampa TRACON
Sat 08:42:15 PM 28.3167 -82.2167 139° Southeast 136 157 9,100  Level Tampa TRACON
Sat 08:43:15 PM 28.2833 -82.2000 156° South 136 157 9,100  Level Tampa TRACON
Sat 08:44:21 PM 28.2500 -82.1833 156° South 141 162 9,100  Level Tampa TRACON
Sat 08:45:21 PM 28.2167 -82.1500 139° Southeast 139 160 9,100  Level Tampa TRACON
Sat 08:46:21 PM 28.1833 -82.1333 156° South 136 157 9,100  Level Tampa TRACON
Sat 08:48:52 PM 28.0967 -82.0850 154° Southeast 137 158 9,100  Level Miami Center
Sat 08:49:53 PM 28.0639 -82.0639 150° Southeast 137 158 9,100  Level Miami Center
Sat 08:50:54 PM 28.0314 -82.0436 151° Southeast 137 158 9,100  Level Miami Center
Sat 08:51:55 PM 27.9986 -82.0225 150° Southeast 136 157 9,100  Level Miami Center
Sat 08:52:56 PM 27.9642 -82.0106 163° South 134 154 9,100  Level Miami Center
Sat 08:53:58 PM 27.9197 -82.0033 172° South 134 154 9,100  Level Miami Center
Sat 08:54:59 PM 27.8828 -81.9969 171° South 134 154 9,100  Level Miami Center
Sat 08:56:00 PM 27.8456 -81.9908 172° South 134 154 9,100  Level Miami Center
Sat 08:57:01 PM 27.8086 -81.9850 172° South 134 154 9,100  Level Miami Center
Sat 08:58:02 PM 27.7717 -81.9789 172° South 134 154 9,100  Level Miami Center
Sat 08:59:03 PM 27.7347 -81.9719 171° South 134 154 9,100  Level Miami Center
Sat 09:00:05 PM 27.6989 -81.9586 162° South 140 161 9,100  Level Miami Center
Sat 09:01:06 PM 27.6667 -81.9406 154° Southeast 131 151 9,100  Level Miami Center
Sat 09:02:07 PM 27.6328 -81.9225 155° Southeast 131 151 9,100 49 Level Miami Center
Sat 09:03:08 PM 27.5978 -81.9056 157° South 132 152 9,200 49 Climbing Miami Center
Sat 09:04:10 PM 27.5628 -81.8892 157° South 133 153 9,200  Level Miami Center
Sat 09:05:11 PM 27.5281 -81.8728 157° South 133 153 9,200  Level Miami Center
Sat 09:06:12 PM 27.4919 -81.8550 156° South 136 157 9,200  Level Miami Center
Sat 09:07:13 PM 27.4567 -81.8383 157° South 137 158 9,200  Level Miami Center
Sat 09:08:14 PM 27.4139 -81.8178 157° South 138 159 9,200 -49 Level Miami Center
Sat 09:09:15 PM 27.3786 -81.8011 157° South 139 160 9,100  Descending Miami Center
Sat 09:10:17 PM 27.3431 -81.7836 156° South 139 160 9,200 -261 Climbing Miami Center
Sat 09:12:19 PM 27.2658 -81.7475 157° South 151 174 8,300 -459 Descending Miami Center
Sat 09:13:20 PM 27.2247 -81.7272 156° South 157 181 7,800 -492 Descending Miami Center
Sat 09:14:21 PM 27.1833 -81.7083 158° South 158 182 7,300 -443 Descending Miami Center
Sat 09:15:22 PM 27.1447 -81.6886 156° South 157 181 6,900 -393 Descending Miami Center
Sat 09:16:23 PM 27.1039 -81.6703 158° South 157 181 6,500 -537 Descending Miami Center
Sat 09:17:25 PM 27.0672 -81.6528 157° South 146 168 5,800 -780 Descending Miami Center
Sat 09:18:26 PM 27.0242 -81.6400 165° South 134 154 4,900 -689 Descending Miami Center
Sat 09:19:27 PM 26.9833 -81.6536 197° South 141 162 4,400 -492 Descending Miami Center
Sat 09:20:28 PM 26.9456 -81.6639 194° South 140 161 3,900 -541 Descending Miami Center
Sat 09:21:29 PM 26.9069 -81.6728 192° South 141 162 3,300 -541 Descending Miami Center
Sat 09:22:30 PM 26.8656 -81.6786 187° South 140 161 2,800 -393 Descending Miami Center
Sat 09:23:31 PM 26.8269 -81.6853 189° South 142 163 2,500 -148 Descending Miami Center
Sat 09:24:32 PM 26.7906 -81.6925 190° South 135 155 2,500 -197 Level Miami Center
Sat 09:25:33 PM 26.7528 -81.7133 206° Southwest 142 163 2,100 -393 Descending Miami Center
Sat 09:26:34 PM 26.7186 -81.7328 207° Southwest 141 162 1,700 -344 Descending Miami Center
Sat 09:27:35 PM 26.6858 -81.7519 208° Southwest 138 159 1,400 -148 Descending Miami Center
Sat 09:28:36 PM 26.6564 -81.7783 219° Southwest 129 148 1,400  Level Miami Center
Sat 09:29:37 PM 26.6283 -81.7978 212° Southwest 121 139 1,400 -49 Level Miami Center
Sat 09:30:38 PM 26.5983 -81.8117 202° Southwest 119 137 1,300 -295 Descending Miami Center
Sat 09:31:39 PM 26.5706 -81.8281 208° Southwest 106 122 800 -541 Descending Miami Center
Sat 09:32:40 PM 26.5783 -81.8508 291° West 87 100 200 -590 Descending Miami Center
Sat 09:34:00 PM 26.5866 -81.8633 North  Level Estimated
Sat 09:41:00 PM 26.5866 -81.8633 204° Southwest  Level Estimated

Login

Don't have an account? Register now (free) for customized features, flight alerts, and more!